sensor_id;sensor_type;location;lat;lon;timestamp;temperature;humidity
19755;DHT22;10036;47.812;9.274;2023-10-31T00:02:03;10.60;99.90
19755;DHT22;10036;47.812;9.274;2023-10-31T00:04:31;10.60;99.90
19755;DHT22;10036;47.812;9.274;2023-10-31T00:06:58;10.50;99.90
19755;DHT22;10036;47.812;9.274;2023-10-31T00:09:25;10.50;99.90
19755;DHT22;10036;47.812;9.274;2023-10-31T00:11:52;10.60;99.90
19755;DHT22;10036;47.812;9.274;2023-10-31T00:14:19;10.50;99.90
19755;DHT22;10036;47.812;9.274;2023-10-31T00:16:46;10.50;99.90
19755;DHT22;10036;47.812;9.274;2023-10-31T00:19:14;10.60;99.90
19755;DHT22;10036;47.812;9.274;2023-10-31T00:21:42;10.50;99.90
19755;DHT22;10036;47.812;9.274;2023-10-31T00:24:09;10.60;99.90
19755;DHT22;10036;47.812;9.274;2023-10-31T00:26:36;10.60;99.90
19755;DHT22;10036;47.812;9.274;2023-10-31T00:29:03;10.60;99.90
19755;DHT22;10036;47.812;9.274;2023-10-31T00:31:30;10.60;99.90
19755;DHT22;10036;47.812;9.274;2023-10-31T00:33:57;10.60;99.90
19755;DHT22;10036;47.812;9.274;2023-10-31T00:36:24;10.60;99.90
19755;DHT22;10036;47.812;9.274;2023-10-31T00:38:52;10.60;99.90
19755;DHT22;10036;47.812;9.274;2023-10-31T00:41:19;10.50;99.90
19755;DHT22;10036;47.812;9.274;2023-10-31T00:43:46;10.60;99.90
19755;DHT22;10036;47.812;9.274;2023-10-31T00:46:12;10.50;99.90
19755;DHT22;10036;47.812;9.274;2023-10-31T00:48:39;10.50;99.90
19755;DHT22;10036;47.812;9.274;2023-10-31T00:51:06;10.50;99.90
19755;DHT22;10036;47.812;9.274;2023-10-31T00:53:33;10.50;99.90
19755;DHT22;10036;47.812;9.274;2023-10-31T00:56:01;10.50;99.90
19755;DHT22;10036;47.812;9.274;2023-10-31T00:58:29;10.40;99.90
19755;DHT22;10036;47.812;9.274;2023-10-31T01:00:56;10.40;99.90
19755;DHT22;10036;47.812;9.274;2023-10-31T01:03:23;10.40;99.90
19755;DHT22;10036;47.812;9.274;2023-10-31T01:05:50;10.30;99.90
19755;DHT22;10036;47.812;9.274;2023-10-31T01:08:17;10.40;99.90
19755;DHT22;10036;47.812;9.274;2023-10-31T01:10:44;10.30;99.90
19755;DHT22;10036;47.812;9.274;2023-10-31T01:13:12;10.40;99.90
19755;DHT22;10036;47.812;9.274;2023-10-31T01:15:39;10.20;99.90
19755;DHT22;10036;47.812;9.274;2023-10-31T01:18:06;10.30;99.90
19755;DHT22;10036;47.812;9.274;2023-10-31T01:20:33;10.30;99.90
19755;DHT22;10036;47.812;9.274;2023-10-31T01:22:59;10.30;99.90
19755;DHT22;10036;47.812;9.274;2023-10-31T01:25:26;10.20;99.90
19755;DHT22;10036;47.812;9.274;2023-10-31T01:27:53;10.30;99.90
19755;DHT22;10036;47.812;9.274;2023-10-31T01:30:21;10.20;99.90
19755;DHT22;10036;47.812;9.274;2023-10-31T01:32:48;10.20;99.90
19755;DHT22;10036;47.812;9.274;2023-10-31T01:35:17;10.20;99.90
19755;DHT22;10036;47.812;9.274;2023-10-31T01:37:43;10.20;99.90
19755;DHT22;10036;47.812;9.274;2023-10-31T01:40:12;10.10;99.90
19755;DHT22;10036;47.812;9.274;2023-10-31T01:42:39;10.20;99.90
19755;DHT22;10036;47.812;9.274;2023-10-31T01:45:07;10.20;99.90
19755;DHT22;10036;47.812;9.274;2023-10-31T01:47:36;10.10;99.90
19755;DHT22;10036;47.812;9.274;2023-10-31T01:50:03;10.10;99.90
19755;DHT22;10036;47.812;9.274;2023-10-31T01:52:30;10.10;99.90
19755;DHT22;10036;47.812;9.274;2023-10-31T01:54:58;10.10;99.90
19755;DHT22;10036;47.812;9.274;2023-10-31T01:57:26;10.10;99.90
19755;DHT22;10036;47.812;9.274;2023-10-31T01:59:53;10.10;99.90
19755;DHT22;10036;47.812;9.274;2023-10-31T02:02:23;10.10;99.90
19755;DHT22;10036;47.812;9.274;2023-10-31T02:04:51;10.20;99.90
19755;DHT22;10036;47.812;9.274;2023-10-31T02:07:18;10.20;99.90
19755;DHT22;10036;47.812;9.274;2023-10-31T02:09:45;10.10;99.90
19755;DHT22;10036;47.812;9.274;2023-10-31T02:12:31;10.10;99.90
19755;DHT22;10036;47.812;9.274;2023-10-31T02:14:58;10.10;99.90
19755;DHT22;10036;47.812;9.274;2023-10-31T02:17:25;10.10;99.90
19755;DHT22;10036;47.812;9.274;2023-10-31T02:19:53;10.10;99.90
19755;DHT22;10036;47.812;9.274;2023-10-31T02:22:21;10.00;99.90
19755;DHT22;10036;47.812;9.274;2023-10-31T02:24:48;10.10;99.90
19755;DHT22;10036;47.812;9.274;2023-10-31T02:27:15;10.00;99.90
19755;DHT22;10036;47.812;9.274;2023-10-31T02:29:42;9.90;99.90
19755;DHT22;10036;47.812;9.274;2023-10-31T02:32:09;10.00;99.90
19755;DHT22;10036;47.812;9.274;2023-10-31T02:34:36;10.00;99.90
19755;DHT22;10036;47.812;9.274;2023-10-31T02:37:03;9.90;99.90
19755;DHT22;10036;47.812;9.274;2023-10-31T02:39:32;9.90;99.90
19755;DHT22;10036;47.812;9.274;2023-10-31T02:41:59;9.90;99.90
19755;DHT22;10036;47.812;9.274;2023-10-31T02:44:26;9.90;99.90
19755;DHT22;10036;47.812;9.274;2023-10-31T02:46:53;9.90;99.90
19755;DHT22;10036;47.812;9.274;2023-10-31T02:49:20;9.90;99.90
19755;DHT22;10036;47.812;9.274;2023-10-31T02:51:47;9.90;99.90
19755;DHT22;10036;47.812;9.274;2023-10-31T02:54:14;9.90;99.90
19755;DHT22;10036;47.812;9.274;2023-10-31T02:56:42;9.90;99.90
19755;DHT22;10036;47.812;9.274;2023-10-31T02:59:09;9.90;99.90
19755;DHT22;10036;47.812;9.274;2023-10-31T03:01:36;9.90;99.90
19755;DHT22;10036;47.812;9.274;2023-10-31T03:04:03;9.90;99.90
19755;DHT22;10036;47.812;9.274;2023-10-31T03:06:30;9.90;99.90
19755;DHT22;10036;47.812;9.274;2023-10-31T03:08:57;9.90;99.90
19755;DHT22;10036;47.812;9.274;2023-10-31T03:11:24;9.90;99.90
19755;DHT22;10036;47.812;9.274;2023-10-31T03:13:53;9.90;99.90
19755;DHT22;10036;47.812;9.274;2023-10-31T03:16:21;10.10;99.90
19755;DHT22;10036;47.812;9.274;2023-10-31T03:18:48;9.90;99.90
19755;DHT22;10036;47.812;9.274;2023-10-31T03:21:15;9.90;99.90
19755;DHT22;10036;47.812;9.274;2023-10-31T03:23:47;9.90;99.90
19755;DHT22;10036;47.812;9.274;2023-10-31T03:26:14;9.90;99.90
19755;DHT22;10036;47.812;9.274;2023-10-31T03:28:42;9.90;99.90
19755;DHT22;10036;47.812;9.274;2023-10-31T03:31:10;9.90;99.90
19755;DHT22;10036;47.812;9.274;2023-10-31T03:33:37;9.90;99.90
19755;DHT22;10036;47.812;9.274;2023-10-31T03:36:05;10.00;99.90
19755;DHT22;10036;47.812;9.274;2023-10-31T03:38:32;10.00;99.90
19755;DHT22;10036;47.812;9.274;2023-10-31T03:40:59;9.90;99.90
19755;DHT22;10036;47.812;9.274;2023-10-31T03:43:26;9.90;99.90
19755;DHT22;10036;47.812;9.274;2023-10-31T03:45:53;9.90;99.90
19755;DHT22;10036;47.812;9.274;2023-10-31T03:48:22;10.00;99.90
19755;DHT22;10036;47.812;9.274;2023-10-31T03:50:48;10.00;99.90
19755;DHT22;10036;47.812;9.274;2023-10-31T03:53:17;10.00;99.90
19755;DHT22;10036;47.812;9.274;2023-10-31T03:55:43;10.00;99.90
19755;DHT22;10036;47.812;9.274;2023-10-31T03:58:10;10.00;99.90
19755;DHT22;10036;47.812;9.274;2023-10-31T04:00:39;10.00;99.90
19755;DHT22;10036;47.812;9.274;2023-10-31T04:03:07;9.90;99.90
19755;DHT22;10036;47.812;9.274;2023-10-31T04:05:35;10.00;99.90
19755;DHT22;10036;47.812;9.274;2023-10-31T04:08:03;10.00;99.90
19755;DHT22;10036;47.812;9.274;2023-10-31T04:10:30;9.90;99.90
19755;DHT22;10036;47.812;9.274;2023-10-31T04:12:57;9.90;99.90
19755;DHT22;10036;47.812;9.274;2023-10-31T04:15:24;9.90;99.90
19755;DHT22;10036;47.812;9.274;2023-10-31T04:17:50;9.90;99.90
19755;DHT22;10036;47.812;9.274;2023-10-31T04:20:17;9.80;99.90
19755;DHT22;10036;47.812;9.274;2023-10-31T04:22:45;9.90;99.90
19755;DHT22;10036;47.812;9.274;2023-10-31T04:25:12;9.90;99.90
19755;DHT22;10036;47.812;9.274;2023-10-31T04:27:39;9.80;99.90
19755;DHT22;10036;47.812;9.274;2023-10-31T04:30:07;9.80;99.90
19755;DHT22;10036;47.812;9.274;2023-10-31T04:32:34;9.80;99.90
19755;DHT22;10036;47.812;9.274;2023-10-31T04:35:01;9.80;99.90
19755;DHT22;10036;47.812;9.274;2023-10-31T04:37:28;9.80;99.90
19755;DHT22;10036;47.812;9.274;2023-10-31T04:39:56;9.80;99.90
19755;DHT22;10036;47.812;9.274;2023-10-31T04:42:23;9.80;99.90
19755;DHT22;10036;47.812;9.274;2023-10-31T04:44:50;9.80;99.90
19755;DHT22;10036;47.812;9.274;2023-10-31T04:47:16;9.80;99.90
19755;DHT22;10036;47.812;9.274;2023-10-31T04:49:43;9.70;99.90
19755;DHT22;10036;47.812;9.274;2023-10-31T04:52:10;9.60;99.90
19755;DHT22;10036;47.812;9.274;2023-10-31T04:54:37;9.50;99.90
19755;DHT22;10036;47.812;9.274;2023-10-31T04:57:06;9.60;99.90
19755;DHT22;10036;47.812;9.274;2023-10-31T04:59:33;9.60;99.90
19755;DHT22;10036;47.812;9.274;2023-10-31T05:02:00;9.70;99.90
19755;DHT22;10036;47.812;9.274;2023-10-31T05:04:26;9.50;99.90
19755;DHT22;10036;47.812;9.274;2023-10-31T05:06:54;9.60;99.90
19755;DHT22;10036;47.812;9.274;2023-10-31T05:09:21;9.60;99.90
19755;DHT22;10036;47.812;9.274;2023-10-31T05:11:48;9.50;99.90
19755;DHT22;10036;47.812;9.274;2023-10-31T05:14:17;9.40;99.90
19755;DHT22;10036;47.812;9.274;2023-10-31T05:16:44;9.40;99.90
19755;DHT22;10036;47.812;9.274;2023-10-31T05:19:11;9.40;99.90
19755;DHT22;10036;47.812;9.274;2023-10-31T05:21:38;9.50;99.90
19755;DHT22;10036;47.812;9.274;2023-10-31T05:24:06;9.40;99.90
19755;DHT22;10036;47.812;9.274;2023-10-31T05:26:33;9.30;99.90
19755;DHT22;10036;47.812;9.274;2023-10-31T05:29:00;9.40;99.90
19755;DHT22;10036;47.812;9.274;2023-10-31T05:31:28;9.30;99.90
19755;DHT22;10036;47.812;9.274;2023-10-31T05:33:55;9.30;99.90
19755;DHT22;10036;47.812;9.274;2023-10-31T05:36:23;9.30;99.90
19755;DHT22;10036;47.812;9.274;2023-10-31T05:38:50;9.40;99.90
19755;DHT22;10036;47.812;9.274;2023-10-31T05:41:17;9.30;99.90
19755;DHT22;10036;47.812;9.274;2023-10-31T05:43:44;9.30;99.90
19755;DHT22;10036;47.812;9.274;2023-10-31T05:46:11;9.30;99.90
19755;DHT22;10036;47.812;9.274;2023-10-31T05:48:42;9.30;99.90
19755;DHT22;10036;47.812;9.274;2023-10-31T05:51:12;9.30;99.90
19755;DHT22;10036;47.812;9.274;2023-10-31T05:53:40;9.30;99.90
19755;DHT22;10036;47.812;9.274;2023-10-31T05:56:08;9.30;99.90
19755;DHT22;10036;47.812;9.274;2023-10-31T05:58:37;9.30;99.90
19755;DHT22;10036;47.812;9.274;2023-10-31T06:01:04;9.30;99.90
19755;DHT22;10036;47.812;9.274;2023-10-31T06:03:31;9.30;99.90
19755;DHT22;10036;47.812;9.274;2023-10-31T06:06:00;9.10;99.90
19755;DHT22;10036;47.812;9.274;2023-10-31T06:08:27;9.30;99.90
19755;DHT22;10036;47.812;9.274;2023-10-31T06:10:55;9.30;99.90
19755;DHT22;10036;47.812;9.274;2023-10-31T06:13:22;9.20;99.90
19755;DHT22;10036;47.812;9.274;2023-10-31T06:15:51;9.30;99.90
19755;DHT22;10036;47.812;9.274;2023-10-31T06:18:18;9.20;99.90
19755;DHT22;10036;47.812;9.274;2023-10-31T06:20:45;9.20;99.90
19755;DHT22;10036;47.812;9.274;2023-10-31T06:23:13;9.10;99.90
19755;DHT22;10036;47.812;9.274;2023-10-31T06:25:40;9.20;99.90
19755;DHT22;10036;47.812;9.274;2023-10-31T06:28:07;9.30;99.90
19755;DHT22;10036;47.812;9.274;2023-10-31T06:30:34;9.30;99.90
19755;DHT22;10036;47.812;9.274;2023-10-31T06:33:01;9.20;99.90
19755;DHT22;10036;47.812;9.274;2023-10-31T06:35:28;9.20;99.90
19755;DHT22;10036;47.812;9.274;2023-10-31T06:37:55;9.30;99.90
19755;DHT22;10036;47.812;9.274;2023-10-31T06:40:24;9.20;99.90
19755;DHT22;10036;47.812;9.274;2023-10-31T06:42:52;9.20;99.90
19755;DHT22;10036;47.812;9.274;2023-10-31T06:45:19;9.30;99.90
19755;DHT22;10036;47.812;9.274;2023-10-31T06:47:45;9.30;99.90
19755;DHT22;10036;47.812;9.274;2023-10-31T06:50:12;9.30;99.90
19755;DHT22;10036;47.812;9.274;2023-10-31T06:52:39;9.30;99.90
19755;DHT22;10036;47.812;9.274;2023-10-31T06:55:07;9.30;99.90
19755;DHT22;10036;47.812;9.274;2023-10-31T06:57:35;9.30;99.90
19755;DHT22;10036;47.812;9.274;2023-10-31T07:00:02;9.30;99.90
19755;DHT22;10036;47.812;9.274;2023-10-31T07:02:29;9.30;99.90
19755;DHT22;10036;47.812;9.274;2023-10-31T07:04:56;9.30;99.90
19755;DHT22;10036;47.812;9.274;2023-10-31T07:07:23;9.30;99.90
19755;DHT22;10036;47.812;9.274;2023-10-31T07:09:50;9.20;99.90
19755;DHT22;10036;47.812;9.274;2023-10-31T07:12:17;9.20;99.90
19755;DHT22;10036;47.812;9.274;2023-10-31T07:14:45;9.20;99.90
19755;DHT22;10036;47.812;9.274;2023-10-31T07:17:12;9.30;99.90
19755;DHT22;10036;47.812;9.274;2023-10-31T07:19:39;9.30;99.90
19755;DHT22;10036;47.812;9.274;2023-10-31T07:22:06;9.30;99.90
19755;DHT22;10036;47.812;9.274;2023-10-31T07:24:32;9.30;99.90
19755;DHT22;10036;47.812;9.274;2023-10-31T07:27:01;9.40;99.90
19755;DHT22;10036;47.812;9.274;2023-10-31T07:29:29;9.40;99.90
19755;DHT22;10036;47.812;9.274;2023-10-31T07:31:57;9.30;99.90
19755;DHT22;10036;47.812;9.274;2023-10-31T07:34:24;9.50;99.90
19755;DHT22;10036;47.812;9.274;2023-10-31T07:36:51;9.50;99.90
19755;DHT22;10036;47.812;9.274;2023-10-31T07:39:18;9.50;99.90
19755;DHT22;10036;47.812;9.274;2023-10-31T07:41:45;9.50;99.90
19755;DHT22;10036;47.812;9.274;2023-10-31T07:44:12;9.60;99.90
19755;DHT22;10036;47.812;9.274;2023-10-31T07:46:39;9.60;99.90
19755;DHT22;10036;47.812;9.274;2023-10-31T07:49:07;9.70;99.90
19755;DHT22;10036;47.812;9.274;2023-10-31T07:51:34;9.80;99.90
19755;DHT22;10036;47.812;9.274;2023-10-31T07:54:01;9.70;99.90
19755;DHT22;10036;47.812;9.274;2023-10-31T07:56:28;9.70;99.90
19755;DHT22;10036;47.812;9.274;2023-10-31T07:58:55;9.80;99.90
19755;DHT22;10036;47.812;9.274;2023-10-31T08:01:22;9.80;99.90
19755;DHT22;10036;47.812;9.274;2023-10-31T08:03:49;9.80;99.90
19755;DHT22;10036;47.812;9.274;2023-10-31T08:06:18;9.90;99.90
19755;DHT22;10036;47.812;9.274;2023-10-31T08:08:44;9.80;99.90
19755;DHT22;10036;47.812;9.274;2023-10-31T08:11:11;9.90;99.90
19755;DHT22;10036;47.812;9.274;2023-10-31T08:13:39;9.90;99.90
19755;DHT22;10036;47.812;9.274;2023-10-31T08:16:06;10.00;99.90
19755;DHT22;10036;47.812;9.274;2023-10-31T08:18:34;10.00;99.90
19755;DHT22;10036;47.812;9.274;2023-10-31T08:21:01;10.10;99.90
19755;DHT22;10036;47.812;9.274;2023-10-31T08:23:29;10.10;99.90
19755;DHT22;10036;47.812;9.274;2023-10-31T08:25:57;10.10;99.90
19755;DHT22;10036;47.812;9.274;2023-10-31T08:28:23;10.10;99.90
19755;DHT22;10036;47.812;9.274;2023-10-31T08:30:50;10.10;99.90
19755;DHT22;10036;47.812;9.274;2023-10-31T08:33:17;10.20;99.90
19755;DHT22;10036;47.812;9.274;2023-10-31T08:35:44;10.10;99.90
19755;DHT22;10036;47.812;9.274;2023-10-31T08:38:13;10.20;99.90
19755;DHT22;10036;47.812;9.274;2023-10-31T08:40:41;10.20;99.90
19755;DHT22;10036;47.812;9.274;2023-10-31T08:43:08;10.20;99.90
19755;DHT22;10036;47.812;9.274;2023-10-31T08:45:35;10.20;99.90
19755;DHT22;10036;47.812;9.274;2023-10-31T08:48:02;10.20;99.90
19755;DHT22;10036;47.812;9.274;2023-10-31T08:50:29;10.10;99.90
19755;DHT22;10036;47.812;9.274;2023-10-31T08:52:56;10.10;99.90
19755;DHT22;10036;47.812;9.274;2023-10-31T08:55:23;10.10;99.90
19755;DHT22;10036;47.812;9.274;2023-10-31T08:57:52;10.00;99.90
19755;DHT22;10036;47.812;9.274;2023-10-31T09:00:18;10.00;99.90
19755;DHT22;10036;47.812;9.274;2023-10-31T09:02:46;10.00;99.90
19755;DHT22;10036;47.812;9.274;2023-10-31T09:05:13;10.00;99.90
19755;DHT22;10036;47.812;9.274;2023-10-31T09:07:40;10.00;99.90
19755;DHT22;10036;47.812;9.274;2023-10-31T09:10:08;10.00;99.90
19755;DHT22;10036;47.812;9.274;2023-10-31T09:12:35;10.00;99.90
19755;DHT22;10036;47.812;9.274;2023-10-31T09:15:04;9.90;99.90
19755;DHT22;10036;47.812;9.274;2023-10-31T09:17:31;10.00;99.90
19755;DHT22;10036;47.812;9.274;2023-10-31T09:19:58;10.00;99.90
19755;DHT22;10036;47.812;9.274;2023-10-31T09:22:25;10.00;99.90
19755;DHT22;10036;47.812;9.274;2023-10-31T09:24:52;10.00;99.90
19755;DHT22;10036;47.812;9.274;2023-10-31T09:27:19;10.00;99.90
19755;DHT22;10036;47.812;9.274;2023-10-31T09:29:46;10.00;99.90
19755;DHT22;10036;47.812;9.274;2023-10-31T09:32:15;10.10;99.90
19755;DHT22;10036;47.812;9.274;2023-10-31T09:34:42;10.20;99.90
19755;DHT22;10036;47.812;9.274;2023-10-31T09:37:09;10.20;99.90
19755;DHT22;10036;47.812;9.274;2023-10-31T09:39:36;10.20;99.90
19755;DHT22;10036;47.812;9.274;2023-10-31T09:42:03;10.10;99.90
19755;DHT22;10036;47.812;9.274;2023-10-31T09:44:30;10.20;99.90
19755;DHT22;10036;47.812;9.274;2023-10-31T09:46:57;10.20;99.90
19755;DHT22;10036;47.812;9.274;2023-10-31T09:49:27;10.20;99.90
19755;DHT22;10036;47.812;9.274;2023-10-31T09:51:54;10.30;99.90
19755;DHT22;10036;47.812;9.274;2023-10-31T09:54:21;10.30;99.90
19755;DHT22;10036;47.812;9.274;2023-10-31T09:56:49;10.40;99.90
19755;DHT22;10036;47.812;9.274;2023-10-31T09:59:16;10.40;99.90
19755;DHT22;10036;47.812;9.274;2023-10-31T10:01:43;10.30;99.90
19755;DHT22;10036;47.812;9.274;2023-10-31T10:04:10;10.40;99.90
19755;DHT22;10036;47.812;9.274;2023-10-31T10:06:49;10.40;99.90
19755;DHT22;10036;47.812;9.274;2023-10-31T10:09:17;10.30;99.90
19755;DHT22;10036;47.812;9.274;2023-10-31T10:11:43;10.40;99.90
19755;DHT22;10036;47.812;9.274;2023-10-31T10:14:12;10.40;99.90
19755;DHT22;10036;47.812;9.274;2023-10-31T10:16:39;10.40;99.90
19755;DHT22;10036;47.812;9.274;2023-10-31T10:19:15;10.50;99.90
19755;DHT22;10036;47.812;9.274;2023-10-31T10:21:49;10.50;99.90
19755;DHT22;10036;47.812;9.274;2023-10-31T10:24:17;10.50;99.90
19755;DHT22;10036;47.812;9.274;2023-10-31T10:26:44;10.60;99.90
19755;DHT22;10036;47.812;9.274;2023-10-31T10:29:11;10.60;99.90
19755;DHT22;10036;47.812;9.274;2023-10-31T10:31:38;10.60;99.90
19755;DHT22;10036;47.812;9.274;2023-10-31T10:34:06;10.60;99.90
19755;DHT22;10036;47.812;9.274;2023-10-31T10:36:33;10.60;99.90
19755;DHT22;10036;47.812;9.274;2023-10-31T10:39:02;10.50;99.90
19755;DHT22;10036;47.812;9.274;2023-10-31T10:41:34;10.70;99.90
19755;DHT22;10036;47.812;9.274;2023-10-31T10:44:04;10.70;99.90
19755;DHT22;10036;47.812;9.274;2023-10-31T10:46:35;10.80;99.90
19755;DHT22;10036;47.812;9.274;2023-10-31T10:49:05;10.80;99.90
19755;DHT22;10036;47.812;9.274;2023-10-31T10:51:45;10.90;99.90
19755;DHT22;10036;47.812;9.274;2023-10-31T10:54:19;11.00;99.90
19755;DHT22;10036;47.812;9.274;2023-10-31T10:56:54;11.10;99.90
19755;DHT22;10036;47.812;9.274;2023-10-31T10:59:26;11.20;99.90
19755;DHT22;10036;47.812;9.274;2023-10-31T11:01:58;11.30;99.90
19755;DHT22;10036;47.812;9.274;2023-10-31T11:04:26;11.40;99.90
19755;DHT22;10036;47.812;9.274;2023-10-31T11:06:54;11.40;99.90
19755;DHT22;10036;47.812;9.274;2023-10-31T11:09:23;11.40;99.90
19755;DHT22;10036;47.812;9.274;2023-10-31T11:11:51;11.40;99.90
19755;DHT22;10036;47.812;9.274;2023-10-31T11:14:19;11.50;99.90
19755;DHT22;10036;47.812;9.274;2023-10-31T11:16:51;11.50;99.90
19755;DHT22;10036;47.812;9.274;2023-10-31T11:19:18;11.60;99.90
19755;DHT22;10036;47.812;9.274;2023-10-31T11:21:57;11.60;99.90
19755;DHT22;10036;47.812;9.274;2023-10-31T11:24:28;11.70;99.90
19755;DHT22;10036;47.812;9.274;2023-10-31T11:26:59;11.70;99.90
19755;DHT22;10036;47.812;9.274;2023-10-31T11:29:26;11.70;99.90
19755;DHT22;10036;47.812;9.274;2023-10-31T11:31:54;11.80;99.90
19755;DHT22;10036;47.812;9.274;2023-10-31T11:34:22;11.60;99.90
19755;DHT22;10036;47.812;9.274;2023-10-31T11:36:51;11.70;99.90
19755;DHT22;10036;47.812;9.274;2023-10-31T11:39:19;11.70;99.90
19755;DHT22;10036;47.812;9.274;2023-10-31T11:41:54;11.80;99.90
19755;DHT22;10036;47.812;9.274;2023-10-31T11:44:22;11.80;99.90
19755;DHT22;10036;47.812;9.274;2023-10-31T11:46:50;11.90;99.90
19755;DHT22;10036;47.812;9.274;2023-10-31T11:49:17;12.00;99.90
19755;DHT22;10036;47.812;9.274;2023-10-31T11:51:45;11.90;99.90
19755;DHT22;10036;47.812;9.274;2023-10-31T11:54:13;11.80;99.90
19755;DHT22;10036;47.812;9.274;2023-10-31T11:56:40;11.80;99.90
19755;DHT22;10036;47.812;9.274;2023-10-31T11:59:08;11.90;99.90
19755;DHT22;10036;47.812;9.274;2023-10-31T12:01:44;11.70;99.90
19755;DHT22;10036;47.812;9.274;2023-10-31T12:04:21;11.70;99.90
19755;DHT22;10036;47.812;9.274;2023-10-31T12:06:57;11.70;99.90
19755;DHT22;10036;47.812;9.274;2023-10-31T12:09:24;11.70;99.90
19755;DHT22;10036;47.812;9.274;2023-10-31T12:11:51;11.50;99.90
19755;DHT22;10036;47.812;9.274;2023-10-31T12:14:20;11.60;99.90
19755;DHT22;10036;47.812;9.274;2023-10-31T12:16:47;11.60;99.90
19755;DHT22;10036;47.812;9.274;2023-10-31T12:19:14;11.60;99.90
19755;DHT22;10036;47.812;9.274;2023-10-31T12:21:43;11.70;99.90
19755;DHT22;10036;47.812;9.274;2023-10-31T12:24:13;11.70;99.90
19755;DHT22;10036;47.812;9.274;2023-10-31T12:26:40;11.80;99.90
19755;DHT22;10036;47.812;9.274;2023-10-31T12:29:09;11.90;99.90
19755;DHT22;10036;47.812;9.274;2023-10-31T12:31:42;11.80;99.90
19755;DHT22;10036;47.812;9.274;2023-10-31T12:34:10;11.80;99.90
19755;DHT22;10036;47.812;9.274;2023-10-31T12:36:37;11.80;99.90
19755;DHT22;10036;47.812;9.274;2023-10-31T12:39:04;11.90;99.90
19755;DHT22;10036;47.812;9.274;2023-10-31T12:41:34;11.80;99.90
19755;DHT22;10036;47.812;9.274;2023-10-31T12:44:02;11.80;99.90
19755;DHT22;10036;47.812;9.274;2023-10-31T12:46:32;11.60;99.90
19755;DHT22;10036;47.812;9.274;2023-10-31T12:49:02;11.50;99.90
19755;DHT22;10036;47.812;9.274;2023-10-31T12:51:29;11.40;99.90
19755;DHT22;10036;47.812;9.274;2023-10-31T12:53:55;11.40;99.90
19755;DHT22;10036;47.812;9.274;2023-10-31T12:56:36;11.30;99.90
19755;DHT22;10036;47.812;9.274;2023-10-31T12:59:05;11.40;99.90
19755;DHT22;10036;47.812;9.274;2023-10-31T13:01:33;11.50;99.90
19755;DHT22;10036;47.812;9.274;2023-10-31T13:04:02;11.60;99.90
19755;DHT22;10036;47.812;9.274;2023-10-31T13:06:29;11.60;99.90
19755;DHT22;10036;47.812;9.274;2023-10-31T13:08:56;11.70;99.90
19755;DHT22;10036;47.812;9.274;2023-10-31T13:11:23;11.70;99.90
19755;DHT22;10036;47.812;9.274;2023-10-31T13:13:52;11.70;99.90
19755;DHT22;10036;47.812;9.274;2023-10-31T13:16:19;11.70;99.90
19755;DHT22;10036;47.812;9.274;2023-10-31T13:18:46;11.70;99.90
19755;DHT22;10036;47.812;9.274;2023-10-31T13:21:16;11.70;99.90
19755;DHT22;10036;47.812;9.274;2023-10-31T13:23:43;11.70;99.90
19755;DHT22;10036;47.812;9.274;2023-10-31T13:26:11;11.70;99.90
19755;DHT22;10036;47.812;9.274;2023-10-31T13:28:38;11.60;99.90
19755;DHT22;10036;47.812;9.274;2023-10-31T13:31:06;11.60;99.90
19755;DHT22;10036;47.812;9.274;2023-10-31T13:33:34;11.70;99.90
19755;DHT22;10036;47.812;9.274;2023-10-31T13:36:01;11.60;99.90
19755;DHT22;10036;47.812;9.274;2023-10-31T13:38:31;11.60;99.90
19755;DHT22;10036;47.812;9.274;2023-10-31T13:40:58;11.50;99.90
19755;DHT22;10036;47.812;9.274;2023-10-31T13:43:26;11.50;99.90
19755;DHT22;10036;47.812;9.274;2023-10-31T13:45:53;11.50;99.90
19755;DHT22;10036;47.812;9.274;2023-10-31T13:48:21;11.50;99.90
19755;DHT22;10036;47.812;9.274;2023-10-31T13:50:47;11.50;99.90
19755;DHT22;10036;47.812;9.274;2023-10-31T13:53:15;11.50;99.90
19755;DHT22;10036;47.812;9.274;2023-10-31T13:55:43;11.50;99.90
19755;DHT22;10036;47.812;9.274;2023-10-31T13:58:11;11.40;99.90
19755;DHT22;10036;47.812;9.274;2023-10-31T14:00:37;11.40;99.90
19755;DHT22;10036;47.812;9.274;2023-10-31T14:03:04;11.30;99.90
19755;DHT22;10036;47.812;9.274;2023-10-31T14:05:31;11.40;99.90
19755;DHT22;10036;47.812;9.274;2023-10-31T14:07:58;11.40;99.90
19755;DHT22;10036;47.812;9.274;2023-10-31T14:10:26;11.30;99.90
19755;DHT22;10036;47.812;9.274;2023-10-31T14:12:54;11.40;99.90
19755;DHT22;10036;47.812;9.274;2023-10-31T14:15:21;11.40;99.90
19755;DHT22;10036;47.812;9.274;2023-10-31T14:17:50;11.40;99.90
19755;DHT22;10036;47.812;9.274;2023-10-31T14:20:17;11.30;99.90
19755;DHT22;10036;47.812;9.274;2023-10-31T14:22:48;11.20;99.90
19755;DHT22;10036;47.812;9.274;2023-10-31T14:25:15;11.20;99.90
19755;DHT22;10036;47.812;9.274;2023-10-31T14:27:42;11.20;99.90
19755;DHT22;10036;47.812;9.274;2023-10-31T14:30:12;11.10;99.90
19755;DHT22;10036;47.812;9.274;2023-10-31T14:32:39;11.10;99.90
19755;DHT22;10036;47.812;9.274;2023-10-31T14:35:07;11.10;99.90
19755;DHT22;10036;47.812;9.274;2023-10-31T14:37:34;11.10;99.90
19755;DHT22;10036;47.812;9.274;2023-10-31T14:40:01;11.10;99.90
19755;DHT22;10036;47.812;9.274;2023-10-31T14:42:29;11.10;99.90
19755;DHT22;10036;47.812;9.274;2023-10-31T14:44:56;11.10;99.90
19755;DHT22;10036;47.812;9.274;2023-10-31T14:47:24;11.10;99.90
19755;DHT22;10036;47.812;9.274;2023-10-31T14:49:51;11.00;99.90
19755;DHT22;10036;47.812;9.274;2023-10-31T14:52:18;11.00;99.90
19755;DHT22;10036;47.812;9.274;2023-10-31T14:54:45;11.00;99.90
19755;DHT22;10036;47.812;9.274;2023-10-31T14:57:14;11.00;99.90
19755;DHT22;10036;47.812;9.274;2023-10-31T14:59:41;11.00;99.90
19755;DHT22;10036;47.812;9.274;2023-10-31T15:02:08;10.90;99.90
19755;DHT22;10036;47.812;9.274;2023-10-31T15:04:36;10.90;99.90
19755;DHT22;10036;47.812;9.274;2023-10-31T15:07:03;11.10;99.90
19755;DHT22;10036;47.812;9.274;2023-10-31T15:09:30;11.00;99.90
19755;DHT22;10036;47.812;9.274;2023-10-31T15:11:57;10.90;99.90
19755;DHT22;10036;47.812;9.274;2023-10-31T15:14:24;10.80;99.90
19755;DHT22;10036;47.812;9.274;2023-10-31T15:16:51;10.80;99.90
19755;DHT22;10036;47.812;9.274;2023-10-31T15:19:19;10.80;99.90
19755;DHT22;10036;47.812;9.274;2023-10-31T15:21:47;10.70;99.90
19755;DHT22;10036;47.812;9.274;2023-10-31T15:24:14;10.70;99.90
19755;DHT22;10036;47.812;9.274;2023-10-31T15:26:41;10.70;99.90
19755;DHT22;10036;47.812;9.274;2023-10-31T15:29:08;10.70;99.90
19755;DHT22;10036;47.812;9.274;2023-10-31T15:31:35;10.60;99.90
19755;DHT22;10036;47.812;9.274;2023-10-31T15:34:02;10.50;99.90
19755;DHT22;10036;47.812;9.274;2023-10-31T15:36:29;10.50;99.90
19755;DHT22;10036;47.812;9.274;2023-10-31T15:38:58;10.60;99.90